Time;durP1;ratioP1;P1;durP2;ratioP2;P2;SDS_P1;SDS_P2;PMS_P1;PMS_P2;Temp;Humidity;BMP_temperature;BMP_pressure;BME280_temperature;BME280_humidity;BME280_pressure;Samples;Min_cycle;Max_cycle;Signal;HPM_P1;HPM_P2
2022/10/18 00:00:59;;;;;;;15.15;12.00;;;17.60;99.90;;;;;;5081671;28;20044;-74
2022/10/18 00:03:24;;;;;;;16.45;12.23;;;17.70;99.90;;;;;;5051861;28;20051;-74
2022/10/18 00:05:50;;;;;;;17.65;12.88;;;17.70;99.90;;;;;;5052573;28;20059;-75
2022/10/18 00:08:16;;;;;;;16.80;13.05;;;17.70;99.90;;;;;;5085306;28;20713;-74
2022/10/18 00:10:42;;;;;;;19.92;14.32;;;17.70;99.90;;;;;;5088487;28;20137;-73
2022/10/18 00:13:08;;;;;;;19.80;14.63;;;17.70;99.90;;;;;;5072233;28;20485;-74
2022/10/18 00:15:34;;;;;;;20.58;15.52;;;17.70;99.90;;;;;;5087221;28;20127;-74
2022/10/18 00:17:59;;;;;;;19.77;14.35;;;17.60;99.90;;;;;;5068098;28;20040;-75
2022/10/18 00:20:25;;;;;;;23.10;16.15;;;17.60;99.90;;;;;;5069536;28;20111;-74
2022/10/18 00:22:51;;;;;;;18.92;14.13;;;17.60;99.90;;;;;;5052553;28;20086;-74
2022/10/18 00:25:17;;;;;;;21.58;14.38;;;17.60;99.90;;;;;;5091968;28;20054;-74
2022/10/18 00:27:42;;;;;;;18.98;14.05;;;17.60;99.90;;;;;;5068017;28;20055;-74
2022/10/18 00:30:08;;;;;;;24.33;16.75;;;17.60;99.90;;;;;;5068434;28;20059;-74
2022/10/18 00:32:38;;;;;;;19.70;14.27;;;17.50;99.90;;;;;;5051366;28;20121;-74
2022/10/18 00:35:04;;;;;;;22.90;15.20;;;17.50;99.90;;;;;;5084880;28;20123;-74
2022/10/18 00:37:30;;;;;;;20.98;15.13;;;17.50;99.90;;;;;;5052202;28;20744;-74
2022/10/18 00:39:56;;;;;;;23.17;14.13;;;17.60;99.90;;;;;;5051511;28;20057;-74
2022/10/18 00:42:22;;;;;;;21.13;14.38;;;17.50;99.90;;;;;;5035140;28;20484;-74
2022/10/18 00:44:47;;;;;;;17.80;14.35;;;17.60;99.90;;;;;;5066959;28;20579;-74
2022/10/18 00:47:13;;;;;;;18.73;14.50;;;17.50;99.90;;;;;;5083852;28;20146;-75
2022/10/18 00:49:40;;;;;;;19.70;15.43;;;17.50;99.90;;;;;;5035132;28;20049;-74
2022/10/18 00:52:28;;;;;;;18.02;15.15;;;17.50;99.90;;;;;;5051199;28;20067;-74
2022/10/18 00:54:54;;;;;;;22.75;15.65;;;17.50;99.90;;;;;;5069969;28;20115;-75
2022/10/18 00:57:20;;;;;;;21.95;16.05;;;17.50;99.90;;;;;;5069704;28;20044;-75
2022/10/18 00:59:46;;;;;;;23.67;16.42;;;17.40;99.90;;;;;;5082264;28;20118;-74
2022/10/18 01:02:13;;;;;;;22.92;16.35;;;17.40;99.90;;;;;;5071327;28;20044;-74
2022/10/18 01:04:39;;;;;;;22.38;16.90;;;17.40;99.90;;;;;;5074099;28;20446;-74
2022/10/18 01:07:30;;;;;;;21.40;16.30;;;17.40;99.90;;;;;;5075510;28;20054;-74
2022/10/18 01:10:10;;;;;;;25.08;16.25;;;17.40;99.90;;;;;;5074958;28;20733;-74
2022/10/18 01:13:00;;;;;;;23.00;18.13;;;17.40;99.90;;;;;;5060316;28;20717;-74
2022/10/18 01:16:03;;;;;;;23.38;17.42;;;17.30;99.90;;;;;;5092821;28;20040;-75
2022/10/18 01:18:37;;;;;;;26.17;17.90;;;17.30;99.90;;;;;;5018512;28;20123;-74
2022/10/18 01:21:15;;;;;;;22.25;16.83;;;17.30;99.90;;;;;;5096442;28;20048;-74
2022/10/18 01:23:53;;;;;;;25.60;18.25;;;17.30;99.90;;;;;;5091440;28;20118;-74
2022/10/18 01:26:50;;;;;;;28.85;18.30;;;17.30;99.90;;;;;;5090536;28;20076;-74
2022/10/18 01:29:39;;;;;;;24.35;18.40;;;17.20;99.90;;;;;;5063967;28;20040;-74
2022/10/18 01:32:11;;;;;;;26.33;18.35;;;17.20;99.90;;;;;;5071674;28;20135;-74
2022/10/18 01:34:37;;;;;;;33.60;19.77;;;17.20;99.90;;;;;;5065135;28;20070;-74
2022/10/18 01:37:05;;;;;;;23.67;18.13;;;17.10;99.90;;;;;;5075458;28;20044;-74
2022/10/18 01:39:34;;;;;;;22.98;17.05;;;17.10;99.90;;;;;;5074750;28;20245;-74
2022/10/18 01:42:01;;;;;;;23.00;17.83;;;17.20;99.90;;;;;;5091845;28;20044;-74
2022/10/18 01:44:28;;;;;;;20.05;15.88;;;17.10;99.90;;;;;;5074892;28;20105;-74
2022/10/18 01:46:55;;;;;;;23.45;17.33;;;17.10;99.90;;;;;;5041153;28;20049;-74
2022/10/18 01:49:21;;;;;;;24.08;18.20;;;17.10;99.90;;;;;;5054806;28;20476;-73
2022/10/18 01:51:46;;;;;;;21.17;17.52;;;17.10;99.90;;;;;;5072002;28;20124;-75
2022/10/18 01:54:16;;;;;;;22.05;16.75;;;17.10;99.90;;;;;;5072406;28;20048;-73
2022/10/18 01:57:04;;;;;;;24.98;17.33;;;17.10;99.90;;;;;;5085654;28;20131;-74
2022/10/18 01:59:49;;;;;;;26.55;17.88;;;17.10;99.90;;;;;;5058410;28;20097;-73
2022/10/18 02:02:34;;;;;;;23.40;16.92;;;17.10;99.90;;;;;;5071376;28;20051;-74
2022/10/18 02:04:59;;;;;;;28.58;17.50;;;17.10;99.90;;;;;;5072139;28;20059;-73
2022/10/18 02:07:31;;;;;;;23.70;16.60;;;17.10;99.90;;;;;;5075836;28;20641;-74
2022/10/18 02:10:14;;;;;;;21.88;17.40;;;17.20;99.90;;;;;;5091574;28;20043;-75
2022/10/18 02:12:41;;;;;;;23.60;16.70;;;17.10;99.90;;;;;;5070387;28;20474;-73
2022/10/18 02:15:08;;;;;;;23.40;17.38;;;17.10;99.90;;;;;;5058997;28;20503;-74
2022/10/18 02:17:34;;;;;;;23.75;17.63;;;17.10;99.90;;;;;;5057063;28;20492;-74
2022/10/18 02:20:00;;;;;;;21.42;16.67;;;17.10;99.90;;;;;;5057829;28;20082;-74
2022/10/18 02:22:28;;;;;;;23.33;17.02;;;17.10;99.90;;;;;;5054033;28;20054;-73
2022/10/18 02:24:55;;;;;;;;;;;17.10;99.90;;;;;;5056867;28;20780;-74
2022/10/18 02:27:21;;;;;;;22.50;16.15;;;17.10;99.90;;;;;;5087726;28;20455;-73
2022/10/18 02:29:46;;;;;;;25.25;18.08;;;17.10;99.90;;;;;;5038744;28;20053;-73
2022/10/18 02:32:17;;;;;;;24.60;17.42;;;17.00;99.90;;;;;;5070435;28;20041;-73
2022/10/18 02:34:51;;;;;;;23.42;17.65;;;17.00;99.90;;;;;;5070671;28;20079;-74
2022/10/18 02:37:17;;;;;;;22.48;18.15;;;17.00;99.90;;;;;;5054374;28;20041;-73
2022/10/18 02:39:47;;;;;;;24.48;17.67;;;17.00;99.90;;;;;;5056660;28;20051;-74
2022/10/18 02:42:13;;;;;;;22.85;17.83;;;17.00;99.90;;;;;;5057715;28;20083;-75
2022/10/18 02:44:39;;;;;;;21.98;15.95;;;17.00;99.90;;;;;;5073035;28;20758;-74
2022/10/18 02:47:06;;;;;;;28.48;18.42;;;17.00;99.90;;;;;;5073558;28;20138;-74
2022/10/18 02:49:31;;;;;;;24.48;18.38;;;17.10;99.90;;;;;;5073838;28;20469;-74
2022/10/18 02:51:57;;;;;;;21.23;17.60;;;17.00;99.90;;;;;;5072098;28;20108;-74
2022/10/18 02:54:23;;;;;;;22.95;16.75;;;17.00;99.90;;;;;;5074390;28;20453;-75
2022/10/18 02:56:49;;;;;;;25.88;19.00;;;17.00;99.90;;;;;;5071133;28;20046;-74
2022/10/18 02:59:16;;;;;;;26.13;17.75;;;17.00;99.90;;;;;;5070128;28;20128;-75
2022/10/18 03:01:41;;;;;;;26.33;20.27;;;17.00;99.90;;;;;;5069537;28;20123;-75
2022/10/18 03:04:07;;;;;;;25.83;19.63;;;16.90;99.90;;;;;;5069430;28;20071;-74
2022/10/18 03:06:33;;;;;;;29.65;20.50;;;16.90;99.90;;;;;;5089916;28;20073;-74
2022/10/18 03:09:00;;;;;;;25.33;20.15;;;16.90;99.90;;;;;;5073900;28;20043;-73
2022/10/18 03:11:26;;;;;;;26.40;19.48;;;16.90;99.90;;;;;;5073455;28;20093;-74
2022/10/18 03:13:51;;;;;;;24.98;17.63;;;16.90;99.90;;;;;;5073118;28;20056;-74
2022/10/18 03:16:17;;;;;;;25.85;19.20;;;16.90;99.90;;;;;;5072756;28;20099;-74
2022/10/18 03:18:43;;;;;;;27.70;18.90;;;16.90;99.90;;;;;;5067888;28;20045;-73
2022/10/18 03:21:09;;;;;;;26.17;20.25;;;16.90;99.90;;;;;;5071277;28;20048;-73
2022/10/18 03:23:34;;;;;;;27.23;20.13;;;16.80;99.90;;;;;;5084969;28;20422;-73
2022/10/18 03:26:00;;;;;;;27.70;20.65;;;16.80;99.90;;;;;;5087258;28;20122;-73
2022/10/18 03:28:26;;;;;;;30.55;20.58;;;16.70;99.90;;;;;;5054114;28;20710;-74
2022/10/18 03:30:52;;;;;;;27.15;19.13;;;16.60;99.90;;;;;;5088989;28;20048;-73
2022/10/18 03:33:17;;;;;;;32.58;20.38;;;16.60;99.90;;;;;;5070681;28;20044;-74
2022/10/18 03:35:43;;;;;;;29.38;19.17;;;16.60;99.90;;;;;;5089338;28;20040;-74
2022/10/18 03:38:09;;;;;;;23.98;19.00;;;16.60;99.90;;;;;;5089607;28;20461;-74
2022/10/18 03:40:34;;;;;;;24.45;18.27;;;16.60;99.90;;;;;;5072132;28;20048;-74
2022/10/18 03:43:00;;;;;;;27.83;19.67;;;16.60;99.90;;;;;;5089581;28;20048;-73
2022/10/18 03:45:26;;;;;;;29.88;20.05;;;16.60;99.90;;;;;;5086766;28;20126;-73
2022/10/18 03:47:51;;;;;;;30.80;20.55;;;16.50;99.90;;;;;;5052490;28;20056;-73
2022/10/18 03:50:17;;;;;;;24.92;18.45;;;16.50;99.90;;;;;;5070366;28;20063;-74
2022/10/18 03:52:43;;;;;;;28.88;20.30;;;16.50;99.90;;;;;;5068823;28;20040;-74
2022/10/18 03:55:09;;;;;;;27.77;20.13;;;16.50;99.90;;;;;;5069279;28;20517;-74
2022/10/18 03:57:34;;;;;;;27.13;19.67;;;16.50;99.90;;;;;;5053218;28;20048;-74
2022/10/18 04:00:00;;;;;;;29.25;19.13;;;16.50;99.90;;;;;;5071668;28;20453;-74
2022/10/18 04:02:26;;;;;;;28.75;20.50;;;16.40;99.90;;;;;;5072935;28;20063;-74
2022/10/18 04:04:51;;;;;;;28.73;20.63;;;16.50;99.90;;;;;;5069358;28;20052;-74
2022/10/18 04:07:17;;;;;;;25.55;19.95;;;16.50;99.90;;;;;;5087613;28;20051;-74
2022/10/18 04:09:43;;;;;;;28.77;20.60;;;16.40;99.90;;;;;;5055265;28;20123;-74
2022/10/18 04:12:09;;;;;;;22.10;17.25;;;16.50;99.90;;;;;;5088825;28;20641;-74
2022/10/18 04:14:34;;;;;;;27.98;18.67;;;16.40;99.90;;;;;;5088245;28;20048;-74
2022/10/18 04:17:00;;;;;;;26.38;19.30;;;16.40;99.90;;;;;;5088603;28;20101;-75
2022/10/18 04:19:26;;;;;;;27.38;19.58;;;16.30;99.90;;;;;;5087354;28;20133;-74
2022/10/18 04:21:52;;;;;;;26.60;19.83;;;16.30;99.90;;;;;;5059928;28;20059;-74
2022/10/18 04:24:18;;;;;;;24.88;19.05;;;16.40;99.90;;;;;;5072718;28;20488;-75
2022/10/18 04:26:44;;;;;;;27.33;19.83;;;16.30;99.90;;;;;;5071158;28;20048;-74
2022/10/18 04:29:10;;;;;;;23.73;18.25;;;16.30;99.90;;;;;;5088083;28;20039;-74
2022/10/18 04:31:35;;;;;;;27.40;19.35;;;16.30;99.90;;;;;;5068609;28;20044;-75
2022/10/18 04:34:03;;;;;;;23.88;18.52;;;16.30;99.90;;;;;;5071114;28;20052;-75
2022/10/18 04:36:29;;;;;;;28.50;19.48;;;16.30;99.90;;;;;;5071712;28;20044;-74
2022/10/18 04:38:55;;;;;;;26.70;19.23;;;16.30;99.90;;;;;;5071538;28;20044;-74
2022/10/18 04:41:20;;;;;;;25.90;19.90;;;16.30;99.90;;;;;;5087434;28;20370;-74
2022/10/18 04:43:46;;;;;;;29.05;20.30;;;16.30;99.90;;;;;;5055888;28;20105;-74
2022/10/18 04:46:12;;;;;;;23.52;18.73;;;16.30;99.90;;;;;;5072054;28;20079;-74
2022/10/18 04:48:38;;;;;;;21.88;17.17;;;16.30;99.90;;;;;;5087482;28;20044;-74
2022/10/18 04:51:04;;;;;;;25.88;18.58;;;16.30;99.90;;;;;;5071490;28;20055;-74
2022/10/18 04:53:30;;;;;;;25.67;18.08;;;16.40;99.90;;;;;;5072152;28;20109;-73
2022/10/18 04:55:55;;;;;;;25.77;17.70;;;16.30;99.90;;;;;;5071364;28;20132;-74
2022/10/18 04:58:21;;;;;;;24.80;18.65;;;16.40;99.90;;;;;;5055126;28;20040;-74
2022/10/18 05:00:48;;;;;;;27.50;19.05;;;16.40;99.90;;;;;;5071730;28;20048;-74
2022/10/18 05:03:14;;;;;;;24.83;18.00;;;16.40;99.90;;;;;;5070201;28;20052;-74
2022/10/18 05:05:40;;;;;;;27.45;18.05;;;16.40;99.90;;;;;;5071353;28;20133;-74
2022/10/18 05:08:06;;;;;;;25.83;18.95;;;16.30;99.90;;;;;;5054290;28;20070;-74
2022/10/18 05:10:31;;;;;;;29.65;19.48;;;16.30;99.90;;;;;;5065311;28;20046;-75
2022/10/18 05:12:57;;;;;;;26.17;19.58;;;16.30;99.90;;;;;;5068034;28;20124;-74
2022/10/18 05:15:23;;;;;;;23.90;17.77;;;16.40;99.90;;;;;;5051945;28;20526;-74
2022/10/18 05:17:49;;;;;;;24.88;18.38;;;16.30;99.90;;;;;;5068628;28;20522;-74
2022/10/18 05:20:15;;;;;;;24.10;17.15;;;16.30;99.90;;;;;;5047592;28;20053;-74
2022/10/18 05:22:41;;;;;;;26.52;18.85;;;16.30;99.90;;;;;;5069960;28;20067;-74
2022/10/18 05:25:07;;;;;;;22.92;18.58;;;16.30;99.90;;;;;;5088764;28;20039;-75
2022/10/18 05:27:33;;;;;;;26.60;19.05;;;16.30;99.90;;;;;;5051867;28;20047;-74
2022/10/18 05:29:59;;;;;;;23.27;17.65;;;16.30;99.90;;;;;;5050949;28;20040;-74
2022/10/18 05:32:25;;;;;;;23.45;17.63;;;16.30;99.90;;;;;;5051133;28;20132;-73
2022/10/18 05:34:51;;;;;;;24.50;17.55;;;16.30;99.90;;;;;;5051904;28;20115;-74
2022/10/18 05:37:17;;;;;;;27.20;18.48;;;16.20;99.90;;;;;;5034316;28;20442;-74
2022/10/18 05:39:43;;;;;;;26.52;20.02;;;16.10;99.90;;;;;;5067168;28;20048;-75
2022/10/18 05:42:09;;;;;;;29.85;20.27;;;16.00;99.90;;;;;;5089861;28;20492;-74
2022/10/18 05:44:34;;;;;;;28.58;19.13;;;16.00;99.90;;;;;;5038030;28;20039;-73
2022/10/18 05:47:00;;;;;;;25.23;19.20;;;16.00;99.90;;;;;;5088359;28;20064;-73
2022/10/18 05:49:26;;;;;;;27.42;19.95;;;15.90;99.90;;;;;;5070723;28;20055;-74
2022/10/18 05:51:52;;;;;;;29.60;19.92;;;16.00;99.90;;;;;;5074877;28;20060;-73
2022/10/18 05:54:17;;;;;;;27.88;20.00;;;15.90;99.90;;;;;;5054925;28;20137;-73
2022/10/18 05:56:43;;;;;;;23.65;19.73;;;15.90;99.90;;;;;;5069448;28;20052;-73
2022/10/18 05:59:10;;;;;;;28.67;20.40;;;15.90;99.90;;;;;;5055242;28;20607;-73
2022/10/18 06:01:40;;;;;;;28.25;19.65;;;15.90;99.90;;;;;;5056851;28;20530;-73
2022/10/18 06:04:06;;;;;;;28.45;19.02;;;16.00;99.90;;;;;;5037383;28;20658;-73
2022/10/18 06:06:32;;;;;;;26.52;19.38;;;16.00;99.90;;;;;;5066831;28;20141;-74
2022/10/18 06:08:57;;;;;;;25.80;19.13;;;15.90;99.90;;;;;;5081428;28;20047;-74
2022/10/18 06:11:25;;;;;;;25.85;19.33;;;16.00;99.90;;;;;;5058268;28;20055;-73
2022/10/18 06:13:51;;;;;;;26.83;19.08;;;16.00;99.90;;;;;;5091412;28;20067;-73
2022/10/18 06:16:19;;;;;;;33.95;21.48;;;16.00;99.90;;;;;;5070063;28;20040;-73
2022/10/18 06:18:48;;;;;;;29.98;20.60;;;16.00;99.90;;;;;;5028646;28;20040;-67
2022/10/18 06:21:15;;;;;;;25.33;19.38;;;16.00;99.90;;;;;;5073618;28;20048;-67
2022/10/18 06:23:42;;;;;;;25.02;19.27;;;16.00;99.90;;;;;;5069892;28;20135;-68
2022/10/18 06:26:08;;;;;;;22.00;18.65;;;16.00;99.90;;;;;;5069891;28;20056;-68
2022/10/18 06:28:34;;;;;;;25.73;18.13;;;16.00;99.90;;;;;;5085701;28;20413;-68
2022/10/18 06:31:00;;;;;;;28.70;19.77;;;16.10;99.90;;;;;;5061336;28;20084;-70
2022/10/18 06:33:26;;;;;;;29.90;20.30;;;16.10;99.90;;;;;;5070039;28;20048;-70
2022/10/18 06:35:59;;;;;;;27.80;20.92;;;16.10;99.90;;;;;;5063379;28;20055;-70
2022/10/18 06:38:26;;;;;;;30.05;20.80;;;16.10;99.90;;;;;;5090965;28;20703;-70
2022/10/18 06:40:52;;;;;;;26.98;19.13;;;16.00;99.90;;;;;;5086308;28;20117;-70
2022/10/18 06:43:18;;;;;;;31.83;19.98;;;16.10;99.90;;;;;;5069353;28;20048;-70
2022/10/18 06:45:43;;;;;;;27.40;19.50;;;16.10;99.90;;;;;;5060906;28;20052;-71
2022/10/18 06:48:09;;;;;;;27.20;20.92;;;16.10;99.90;;;;;;5053098;28;20048;-69
2022/10/18 06:50:35;;;;;;;26.35;20.75;;;16.10;99.90;;;;;;5059339;28;20059;-69
2022/10/18 06:53:02;;;;;;;28.98;21.35;;;16.10;99.90;;;;;;5056773;28;20451;-69
2022/10/18 06:55:29;;;;;;;32.55;22.25;;;16.10;99.90;;;;;;5073090;28;20044;-70
2022/10/18 06:57:55;;;;;;;30.38;19.88;;;16.10;99.90;;;;;;5073481;28;20050;-70
2022/10/18 07:00:21;;;;;;;28.98;20.67;;;16.10;99.90;;;;;;5061260;28;20382;-70
2022/10/18 07:02:46;;;;;;;34.15;21.35;;;16.10;99.90;;;;;;5067241;28;20040;-70
2022/10/18 07:05:12;;;;;;;32.08;20.85;;;16.10;99.90;;;;;;5052629;28;20082;-70
2022/10/18 07:07:38;;;;;;;27.33;19.75;;;16.20;99.90;;;;;;5046735;28;20067;-69
2022/10/18 07:10:05;;;;;;;29.27;19.63;;;16.20;99.90;;;;;;5069561;28;20048;-69
2022/10/18 07:12:31;;;;;;;25.30;19.90;;;16.20;99.90;;;;;;5070589;28;20051;-69
2022/10/18 07:14:57;;;;;;;28.55;19.23;;;16.20;99.90;;;;;;5069667;28;20825;-70
2022/10/18 07:17:23;;;;;;;27.45;20.35;;;16.20;99.90;;;;;;5083352;28;20051;-70
2022/10/18 07:19:49;;;;;;;30.65;21.48;;;16.20;99.90;;;;;;5073177;28;20469;-70
2022/10/18 07:22:14;;;;;;;25.17;19.52;;;16.20;99.90;;;;;;5090121;28;20043;-70
2022/10/18 07:24:40;;;;;;;28.27;19.30;;;16.20;99.90;;;;;;5072991;28;20369;-70
2022/10/18 07:27:09;;;;;;;30.42;20.52;;;16.20;99.90;;;;;;5089369;28;20048;-69
2022/10/18 07:29:39;;;;;;;31.55;21.95;;;16.20;99.90;;;;;;5056492;28;20059;-70
2022/10/18 07:32:05;;;;;;;32.45;21.40;;;16.20;99.90;;;;;;5073513;28;20044;-70
2022/10/18 07:34:31;;;;;;;28.95;21.08;;;16.20;99.90;;;;;;5088231;28;20538;-70
2022/10/18 07:36:56;;;;;;;30.55;20.35;;;16.30;99.90;;;;;;5072972;28;20515;-70
2022/10/18 07:39:22;;;;;;;29.73;20.85;;;16.30;99.90;;;;;;5089982;28;20848;-70
2022/10/18 07:41:48;;;;;;;30.73;22.67;;;16.30;99.90;;;;;;5056620;28;20043;-70
2022/10/18 07:44:14;;;;;;;27.73;21.23;;;16.30;99.90;;;;;;5070693;28;20071;-70
2022/10/18 07:46:39;;;;;;;27.85;20.85;;;16.30;99.90;;;;;;5089299;28;20066;-69
2022/10/18 07:49:05;;;;;;;28.25;21.73;;;16.30;99.90;;;;;;5056059;28;20059;-70
2022/10/18 07:51:34;;;;;;;29.45;21.40;;;16.30;99.90;;;;;;5055419;28;20048;-70
2022/10/18 07:54:01;;;;;;;35.03;22.42;;;16.30;99.90;;;;;;5073002;28;20051;-70
2022/10/18 07:56:27;;;;;;;31.00;21.50;;;16.30;99.90;;;;;;5055004;28;20040;-70
2022/10/18 07:58:54;;;;;;;30.23;21.40;;;16.30;99.90;;;;;;5054793;28;20048;-70
2022/10/18 08:01:23;;;;;;;30.15;22.33;;;16.30;99.90;;;;;;5072117;28;20526;-70
2022/10/18 08:03:49;;;;;;;31.05;21.83;;;16.30;99.90;;;;;;5055103;28;20059;-70
2022/10/18 08:06:17;;;;;;;34.22;23.17;;;16.20;99.90;;;;;;5070470;28;20044;-70
2022/10/18 08:08:43;;;;;;;35.17;25.38;;;16.20;99.90;;;;;;5072188;28;20076;-70
2022/10/18 08:11:14;;;;;;;31.08;22.73;;;16.20;99.90;;;;;;5071469;28;20071;-70
2022/10/18 08:13:41;;;;;;;31.38;22.55;;;16.20;99.90;;;;;;5072064;28;20039;-70
2022/10/18 08:16:09;;;;;;;29.40;21.17;;;16.30;99.90;;;;;;5064921;28;20040;-72
2022/10/18 08:18:35;;;;;;;31.00;22.13;;;16.30;99.90;;;;;;5019395;28;20040;-69
2022/10/18 08:21:02;;;;;;;29.20;22.20;;;16.30;99.90;;;;;;5027752;28;20135;-70
2022/10/18 08:23:31;;;;;;;30.83;22.85;;;16.30;99.90;;;;;;5045740;28;20044;-70
2022/10/18 08:26:01;;;;;;;28.45;21.60;;;16.40;99.90;;;;;;5058395;28;20475;-70
2022/10/18 08:28:26;;;;;;;31.35;21.92;;;16.40;99.90;;;;;;5050868;28;20044;-70
2022/10/18 08:30:52;;;;;;;30.75;23.40;;;16.40;99.90;;;;;;5079033;28;20055;-70
2022/10/18 08:33:18;;;;;;;30.17;22.58;;;16.50;99.90;;;;;;5087196;28;20040;-70
2022/10/18 08:35:56;;;;;;;30.77;22.95;;;16.50;99.90;;;;;;5084551;28;20048;-70
2022/10/18 08:38:22;;;;;;;31.48;22.45;;;16.50;99.90;;;;;;5089584;28;20127;-70
2022/10/18 08:40:48;;;;;;;28.65;21.58;;;16.50;99.90;;;;;;5067593;28;20453;-70
2022/10/18 08:43:25;;;;;;;31.02;22.58;;;16.60;99.90;;;;;;5054365;28;20048;-70
2022/10/18 08:45:50;;;;;;;29.77;23.85;;;16.60;99.90;;;;;;5075134;28;20067;-70
2022/10/18 08:48:20;;;;;;;32.20;22.65;;;16.60;99.90;;;;;;5033478;28;20440;-70
2022/10/18 08:50:46;;;;;;;29.55;22.00;;;16.60;99.90;;;;;;5040508;28;20056;-70
2022/10/18 08:53:31;;;;;;;35.88;24.17;;;16.60;99.90;;;;;;5058120;28;20040;-69
2022/10/18 08:56:10;;;;;;;29.80;22.60;;;16.70;99.90;;;;;;5065903;28;20040;-76
2022/10/18 08:58:37;;;;;;;34.88;24.30;;;16.80;99.90;;;;;;5041849;28;20517;-75
2022/10/18 09:01:08;;;;;;;34.13;24.05;;;16.80;99.90;;;;;;5052159;28;20052;-76
2022/10/18 09:03:57;;;;;;;35.17;24.65;;;16.80;99.90;;;;;;5069928;28;20141;-76
2022/10/18 09:06:45;;;;;;;32.60;24.42;;;16.80;99.90;;;;;;5089383;28;20059;-76
2022/10/18 09:10:09;;;;;;;32.97;24.30;;;16.80;99.90;;;;;;5088719;28;20051;-75
2022/10/18 09:12:51;;;;;;;31.55;24.17;;;16.80;99.90;;;;;;5033983;28;20086;-76
2022/10/18 09:15:27;;;;;;;34.35;23.88;;;16.80;99.90;;;;;;5042967;28;20067;-76
2022/10/18 09:18:11;;;;;;;36.53;25.55;;;16.90;99.90;;;;;;5071718;28;20048;-76
2022/10/18 09:20:58;;;;;;;33.78;24.00;;;16.90;99.90;;;;;;5053014;28;20048;-76
2022/10/18 09:23:43;;;;;;;31.15;23.48;;;16.90;99.90;;;;;;5050976;28;20665;-76
2022/10/18 09:26:21;;;;;;;34.85;23.80;;;17.00;99.90;;;;;;5056818;28;20040;-76
2022/10/18 09:29:05;;;;;;;;;;;17.00;99.90;;;;;;5085301;28;20045;-74
2022/10/18 09:31:40;;;;;;;35.95;24.38;;;17.00;99.90;;;;;;5075101;28;19925;-74
2022/10/18 09:34:21;;;;;;;31.58;22.90;;;17.00;99.90;;;;;;5092001;28;20044;-73
2022/10/18 09:36:49;;;;;;;33.00;22.38;;;17.00;99.90;;;;;;5065733;28;20041;-74
2022/10/18 09:39:17;;;;;;;32.58;24.67;;;17.00;99.90;;;;;;5073652;28;20071;-74
2022/10/18 09:41:50;;;;;;;33.85;23.60;;;16.90;99.90;;;;;;5070602;28;20083;-73
2022/10/18 09:44:29;;;;;;;32.50;22.80;;;16.80;99.90;;;;;;5072935;28;20044;-73
2022/10/18 09:47:07;;;;;;;33.03;22.45;;;16.80;99.90;;;;;;5089719;28;20127;-73
2022/10/18 09:49:36;;;;;;;34.05;22.95;;;16.80;99.90;;;;;;5054465;28;20048;-74
2022/10/18 09:52:05;;;;;;;32.13;22.23;;;16.80;99.90;;;;;;5055237;28;20329;-74
2022/10/18 09:54:38;;;;;;;35.40;22.83;;;16.80;99.90;;;;;;5054121;28;20125;-74
2022/10/18 09:57:15;;;;;;;35.25;23.08;;;16.80;99.90;;;;;;5086759;28;20070;-74
2022/10/18 09:59:48;;;;;;;32.93;25.13;;;16.80;99.90;;;;;;5041498;28;20426;-74
2022/10/18 10:02:16;;;;;;;32.90;23.42;;;16.70;99.90;;;;;;5058458;28;20047;-73
2022/10/18 10:04:43;;;;;;;33.22;21.27;;;16.80;99.90;;;;;;5091597;28;20089;-74
2022/10/18 10:07:26;;;;;;;29.75;20.27;;;16.80;99.90;;;;;;5091766;28;20035;-74
2022/10/18 10:09:57;;;;;;;34.13;21.30;;;16.80;99.90;;;;;;5058196;28;20044;-73
2022/10/18 10:12:38;;;;;;;34.33;21.80;;;16.80;99.90;;;;;;5091860;28;20605;-74
2022/10/18 10:15:26;;;;;;;32.88;22.88;;;16.80;99.90;;;;;;5057898;28;20051;-74
2022/10/18 10:18:01;;;;;;;34.25;22.23;;;16.70;99.90;;;;;;5074108;28;20093;-74
2022/10/18 10:20:44;;;;;;;39.72;23.95;;;16.80;99.90;;;;;;5075296;28;20044;-74
2022/10/18 10:23:22;;;;;;;35.92;26.08;;;16.70;99.90;;;;;;5072251;28;20075;-74
2022/10/18 10:25:52;;;;;;;39.10;26.55;;;16.70;99.90;;;;;;5070896;28;20097;-74
2022/10/18 10:28:22;;;;;;;36.72;25.75;;;16.60;99.90;;;;;;5082520;28;20131;-74
2022/10/18 10:30:49;;;;;;;38.95;26.35;;;16.70;99.90;;;;;;5074387;28;20066;-74
2022/10/18 10:33:35;;;;;;;35.30;23.25;;;16.70;99.90;;;;;;5057814;28;20036;-74
2022/10/18 10:36:03;;;;;;;35.65;24.10;;;16.60;99.90;;;;;;5073635;28;20036;-74
2022/10/18 10:38:29;;;;;;;36.60;22.05;;;16.60;99.90;;;;;;5054024;28;20109;-74
2022/10/18 10:40:55;;;;;;;30.48;21.77;;;16.50;99.90;;;;;;5054140;28;20716;-74
2022/10/18 10:43:26;;;;;;;27.25;19.20;;;16.50;99.90;;;;;;5070968;28;20102;-74
2022/10/18 10:45:56;;;;;;;26.20;18.38;;;16.40;99.90;;;;;;5067597;28;20653;-74
2022/10/18 10:48:22;;;;;;;36.03;20.25;;;16.30;99.90;;;;;;5091255;28;20056;-74
2022/10/18 10:50:52;;;;;;;29.50;19.30;;;16.30;99.90;;;;;;5074202;28;20063;-74
2022/10/18 10:53:28;;;;;;;34.10;19.00;;;16.30;99.90;;;;;;5089879;28;20044;-73
2022/10/18 10:55:54;;;;;;;33.60;21.17;;;16.40;99.90;;;;;;5056816;28;20040;-74
2022/10/18 10:58:20;;;;;;;26.95;18.80;;;16.30;99.90;;;;;;5074076;28;20043;-73
2022/10/18 11:00:46;;;;;;;26.95;18.85;;;16.40;99.90;;;;;;5074038;28;20055;-74
2022/10/18 11:03:13;;;;;;;30.98;20.25;;;16.40;99.90;;;;;;5072778;28;20056;-74
2022/10/18 11:05:44;;;;;;;29.93;19.63;;;16.50;99.90;;;;;;5056816;28;20454;-74
2022/10/18 11:08:10;;;;;;;27.15;18.92;;;16.50;99.90;;;;;;5072631;28;20113;-75
2022/10/18 11:10:43;;;;;;;27.85;17.63;;;16.60;99.90;;;;;;5073390;28;20469;-74
2022/10/18 11:13:23;;;;;;;32.83;20.65;;;16.60;99.90;;;;;;5073408;28;20185;-73
2022/10/18 11:15:51;;;;;;;30.35;19.55;;;16.70;99.90;;;;;;5089777;28;20039;-74
2022/10/18 11:18:37;;;;;;;31.67;19.75;;;16.70;99.90;;;;;;5073363;28;20127;-75
2022/10/18 11:21:21;;;;;;;30.10;18.70;;;16.70;99.90;;;;;;5043371;28;20040;-75
2022/10/18 11:23:47;;;;;;;23.98;15.23;;;16.70;99.90;;;;;;5041157;28;20044;-74
2022/10/18 11:26:35;;;;;;;28.30;15.73;;;16.60;99.90;;;;;;5067864;28;20036;-73
2022/10/18 11:29:21;;;;;;;24.50;15.03;;;16.60;99.90;;;;;;5106138;28;20648;-74
2022/10/18 11:32:12;;;;;;;24.80;15.13;;;16.60;99.90;;;;;;5111288;28;20297;-74
2022/10/18 11:35:08;;;;;;;24.40;16.15;;;16.60;99.90;;;;;;5052804;28;20450;-74
2022/10/18 11:38:05;;;;;;;23.17;16.13;;;16.60;99.90;;;;;;5055085;28;20118;-74
2022/10/18 11:40:55;;;;;;;24.42;13.90;;;16.60;99.90;;;;;;5064552;28;20485;-74
2022/10/18 11:43:41;;;;;;;25.20;14.38;;;16.70;99.90;;;;;;5069963;28;20044;-75
2022/10/18 11:46:43;;;;;;;24.27;15.00;;;16.90;99.90;;;;;;5077096;28;20063;-73
2022/10/18 11:49:24;;;;;;;24.02;15.75;;;17.00;99.90;;;;;;5089668;28;20151;-75
2022/10/18 11:52:08;;;;;;;25.48;16.23;;;16.90;99.90;;;;;;5089605;28;20130;-74
2022/10/18 11:54:55;;;;;;;25.23;16.33;;;17.20;99.90;;;;;;5089265;28;20442;-74
2022/10/18 11:57:33;;;;;;;24.77;14.63;;;17.40;99.90;;;;;;5072910;28;20051;-75
2022/10/18 12:00:21;;;;;;;25.73;13.10;;;17.60;99.90;;;;;;5072880;28;20369;-74
2022/10/18 12:02:48;;;;;;;16.83;11.52;;;18.20;99.90;;;;;;5090319;28;20093;-74
2022/10/18 12:05:15;;;;;;;15.65;9.88;;;18.40;99.90;;;;;;5087437;28;20502;-74
2022/10/18 12:07:52;;;;;;;21.17;10.43;;;18.90;99.90;;;;;;5036205;28;20129;-73
2022/10/18 12:10:18;;;;;;;16.52;9.05;;;19.10;99.90;;;;;;5053100;28;20048;-74
2022/10/18 12:13:01;;;;;;;15.50;8.98;;;19.30;99.90;;;;;;5088162;28;20062;-74
2022/10/18 12:15:27;;;;;;;17.05;10.00;;;19.90;98.90;;;;;;5072330;28;20101;-75
2022/10/18 12:17:54;;;;;;;18.45;10.75;;;19.70;99.90;;;;;;5071530;28;20061;-74
2022/10/18 12:20:34;;;;;;;18.90;10.90;;;20.20;99.70;;;;;;5084545;28;20200;-74
2022/10/18 12:23:14;;;;;;;20.45;11.38;;;20.70;98.60;;;;;;5069125;28;20144;-74
2022/10/18 12:25:42;;;;;;;16.70;10.10;;;21.70;98.00;;;;;;5068651;28;20769;-77
2022/10/18 12:28:31;;;;;;;16.20;9.57;;;21.40;95.20;;;;;;5045672;28;20048;-75
2022/10/18 12:31:18;;;;;;;16.60;9.80;;;20.70;95.60;;;;;;5057391;28;20155;-74
2022/10/18 12:33:49;;;;;;;18.75;9.65;;;20.50;96.50;;;;;;5089520;28;20626;-74
2022/10/18 12:36:44;;;;;;;17.23;10.63;;;21.30;95.40;;;;;;5055109;28;20132;-74
2022/10/18 12:39:17;;;;;;;20.98;11.68;;;20.00;97.00;;;;;;5062500;28;20040;-75
2022/10/18 12:41:43;;;;;;;16.20;10.50;;;20.70;96.30;;;;;;5068243;28;20052;-74
2022/10/18 12:44:32;;;;;;;15.73;9.98;;;20.60;95.90;;;;;;5051551;28;20045;-74